createdAt,value
2023-05-04T00:05:10.506Z,101030.73
2023-05-04T00:15:14.128Z,101029.15
2023-05-04T00:25:21.330Z,101028.38
2023-05-04T00:35:25.463Z,101027.32
2023-05-04T00:45:29.694Z,101025.38
2023-05-04T00:55:41.661Z,101027.36
2023-05-04T01:06:16.494Z,101023.90
2023-05-04T01:16:22.127Z,101031.32
2023-05-04T01:26:31.774Z,101029.79
2023-05-04T01:36:36.469Z,101021.18
2023-05-04T01:46:43.249Z,101018.19
2023-05-04T01:56:48.965Z,101018.34
2023-05-04T02:06:52.802Z,101012.86
2023-05-04T02:16:56.579Z,101004.91
2023-05-04T02:27:00.234Z,101007.60
2023-05-04T02:37:07.085Z,101010.83
2023-05-04T02:47:13.654Z,101013.65
2023-05-04T02:57:18.250Z,101008.20
2023-05-04T03:07:21.954Z,101007.23
2023-05-04T03:17:27.216Z,101004.05
2023-05-04T03:27:32.825Z,101012.55
2023-05-04T03:37:36.581Z,101015.01
2023-05-04T03:47:42.343Z,101016.23
2023-05-04T03:57:46.345Z,101013.09
2023-05-04T04:07:50.581Z,101008.61
2023-05-04T04:17:58.375Z,101010.34
2023-05-04T04:28:02.231Z,101020.60
2023-05-04T04:38:07.683Z,101012.04
2023-05-04T04:48:13.628Z,101015.95
2023-05-04T04:58:17.200Z,101017.73
2023-05-04T05:08:23.561Z,101013.85
2023-05-04T05:18:27.434Z,101009.16
2023-05-04T05:28:32.711Z,101012.83
2023-05-04T05:38:37.350Z,101008.95
2023-05-04T05:48:41.518Z,101004.06
2023-05-04T05:58:46.713Z,100998.30
2023-05-04T06:08:50.411Z,100997.86
2023-05-04T06:18:53.979Z,100993.41
2023-05-04T06:28:59.508Z,100997.03
2023-05-04T06:39:03.191Z,100994.56
2023-05-04T06:49:07.070Z,100989.52
2023-05-04T06:59:10.821Z,100988.08
2023-05-04T07:09:18.807Z,100978.36
2023-05-04T07:19:22.524Z,100975.91
2023-05-04T07:29:26.752Z,100971.53
2023-05-04T07:39:30.537Z,100972.40
2023-05-04T07:49:34.585Z,100968.73
2023-05-04T07:59:38.229Z,100963.02
2023-05-04T08:09:41.938Z,100954.73
2023-05-04T08:19:48.330Z,100949.02
2023-05-04T08:29:52.292Z,100945.66
2023-05-04T08:39:57.915Z,100945.23
2023-05-04T08:50:03.665Z,100941.32
2023-05-04T09:00:11.325Z,100931.47
2023-05-04T09:10:17.040Z,100933.11
2023-05-04T09:20:21.701Z,100937.80
2023-05-04T09:30:25.442Z,100931.71
2023-05-04T09:40:32.910Z,100920.35
2023-05-04T09:50:38.270Z,100915.45
2023-05-04T10:00:42.969Z,100907.92
2023-05-04T10:10:46.788Z,100908.22
2023-05-04T10:21:03.043Z,100908.63
2023-05-04T10:31:07.647Z,100902.89
2023-05-04T10:41:19.870Z,100889.39
2023-05-04T10:51:32.623Z,100870.86
2023-05-04T11:01:47.624Z,100865.20
2023-05-04T11:11:53.974Z,100853.50
2023-05-04T11:21:58.231Z,100847.56
2023-05-04T11:32:01.936Z,100842.71
2023-05-04T11:42:10.768Z,100834.90
2023-05-04T11:52:14.943Z,100830.10
2023-05-04T12:02:19.022Z,100830.39
2023-05-04T12:12:36.065Z,100823.98
2023-05-04T12:22:39.785Z,100818.80
2023-05-04T12:32:44.193Z,100819.96
2023-05-04T12:42:48.120Z,100808.02
2023-05-04T12:52:51.664Z,100797.55
2023-05-04T13:02:55.208Z,100795.77
2023-05-04T13:12:58.899Z,100792.91
2023-05-04T13:23:04.478Z,100786.77
2023-05-04T13:33:20.610Z,100773.38
2023-05-04T13:43:32.109Z,100758.90
2023-05-04T13:53:35.850Z,100747.14
2023-05-04T14:03:39.453Z,100741.01
2023-05-04T14:13:44.784Z,100728.55
2023-05-04T14:23:48.498Z,100723.34
2023-05-04T14:33:52.403Z,100712.02
2023-05-04T14:44:00.627Z,100710.56
2023-05-04T14:54:04.493Z,100704.91
2023-05-04T15:04:08.181Z,100697.14
2023-05-04T15:14:15.717Z,100686.91
2023-05-04T15:24:19.325Z,100678.96
2023-05-04T15:34:22.865Z,100670.00
2023-05-04T15:44:29.866Z,100666.86
2023-05-04T15:54:33.802Z,100656.05
2023-05-04T16:04:38.786Z,100643.27
2023-05-04T16:14:44.125Z,100638.52
2023-05-04T16:24:50.293Z,100639.09
2023-05-04T16:34:53.947Z,100645.95
2023-05-04T16:44:58.795Z,100645.92
2023-05-04T16:55:02.630Z,100642.05
2023-05-04T17:05:10.627Z,100643.74
2023-05-04T17:15:14.387Z,100645.97
2023-05-04T17:25:20.563Z,100656.02
2023-05-04T17:35:26.208Z,100664.79
2023-05-04T17:45:30.440Z,100672.54
2023-05-04T17:55:36.124Z,100674.82
2023-05-04T18:05:43.922Z,100677.12
2023-05-04T18:15:47.865Z,100684.95
2023-05-04T18:25:51.562Z,100699.55
2023-05-04T18:35:55.345Z,100713.94
2023-05-04T18:46:10.144Z,100726.23
2023-05-04T18:56:13.942Z,100727.63
2023-05-04T19:06:17.714Z,100742.48
2023-05-04T19:16:22.854Z,100749.30
2023-05-04T19:26:28.881Z,100751.10
2023-05-04T19:36:34.802Z,100754.06
2023-05-04T19:46:41.704Z,100751.54
2023-05-04T19:56:45.414Z,100755.73
2023-05-04T20:06:49.167Z,100758.73
2023-05-04T20:16:56.014Z,100758.41
2023-05-04T20:27:00.412Z,100758.01
2023-05-04T20:37:03.994Z,100760.92
2023-05-04T20:47:10.846Z,100765.80
2023-05-04T20:57:14.606Z,100774.13
2023-05-04T21:07:18.460Z,100781.81
2023-05-04T21:17:25.774Z,100785.27
2023-05-04T21:27:33.504Z,100807.31
2023-05-04T21:37:37.499Z,100806.02
2023-05-04T21:47:41.109Z,100775.77
2023-05-04T21:57:46.697Z,100764.06
2023-05-04T22:07:50.662Z,100750.95
2023-05-04T22:17:59.389Z,100759.58
2023-05-04T22:28:03.867Z,100770.25
2023-05-04T22:39:11.326Z,100766.06
2023-05-04T22:49:17.672Z,100757.76
2023-05-04T22:59:21.269Z,100756.08
2023-05-04T23:09:24.921Z,100760.55
2023-05-04T23:19:32.065Z,100760.98
2023-05-04T23:29:35.808Z,100765.36
2023-05-04T23:39:40.291Z,100768.59
2023-05-04T23:49:47.407Z,100774.31
2023-05-04T23:59:52.583Z,100773.61
